sensor_id;sensor_type;location;lat;lon;timestamp;P1;durP1;ratioP1;P2;durP2;ratioP2
37309;SDS011;23195;47.744;7.358;2023-05-07T06:00:37;8.90;;;5.90;;
37309;SDS011;23195;47.744;7.358;2023-05-07T06:03:13;7.83;;;5.60;;
37309;SDS011;23195;47.744;7.358;2023-05-07T06:05:39;8.80;;;6.10;;
37309;SDS011;23195;47.744;7.358;2023-05-07T06:08:04;8.37;;;6.00;;
37309;SDS011;23195;47.744;7.358;2023-05-07T06:10:30;7.37;;;6.10;;
37309;SDS011;23195;47.744;7.358;2023-05-07T06:12:56;7.70;;;6.20;;
37309;SDS011;23195;47.744;7.358;2023-05-07T06:15:22;8.63;;;6.50;;
37309;SDS011;23195;47.744;7.358;2023-05-07T06:17:47;10.10;;;6.40;;
37309;SDS011;23195;47.744;7.358;2023-05-07T06:20:14;11.83;;;6.93;;
37309;SDS011;23195;47.744;7.358;2023-05-07T06:22:43;7.87;;;6.77;;
37309;SDS011;23195;47.744;7.358;2023-05-07T06:25:09;9.50;;;6.30;;
37309;SDS011;23195;47.744;7.358;2023-05-07T06:27:34;8.27;;;6.33;;
37309;SDS011;23195;47.744;7.358;2023-05-07T06:30:00;12.63;;;7.40;;
37309;SDS011;23195;47.744;7.358;2023-05-07T06:32:26;9.17;;;6.80;;
37309;SDS011;23195;47.744;7.358;2023-05-07T06:34:52;10.03;;;7.30;;
37309;SDS011;23195;47.744;7.358;2023-05-07T06:37:17;11.30;;;6.77;;
37309;SDS011;23195;47.744;7.358;2023-05-07T06:39:43;7.53;;;6.63;;
37309;SDS011;23195;47.744;7.358;2023-05-07T06:42:09;12.33;;;6.27;;
37309;SDS011;23195;47.744;7.358;2023-05-07T06:44:50;7.63;;;5.60;;
37309;SDS011;23195;47.744;7.358;2023-05-07T06:47:35;8.10;;;5.50;;
37309;SDS011;23195;47.744;7.358;2023-05-07T06:50:14;6.17;;;4.73;;
37309;SDS011;23195;47.744;7.358;2023-05-07T06:52:54;5.73;;;5.07;;
37309;SDS011;23195;47.744;7.358;2023-05-07T06:55:36;7.87;;;4.83;;
37309;SDS011;23195;47.744;7.358;2023-05-07T06:58:25;4.70;;;4.07;;
37309;SDS011;23195;47.744;7.358;2023-05-07T07:04:26;4.60;;;4.20;;
37309;SDS011;23195;47.744;7.358;2023-05-07T07:07:17;4.90;;;4.40;;
37309;SDS011;23195;47.744;7.358;2023-05-07T07:09:59;4.87;;;4.37;;
37309;SDS011;23195;47.744;7.358;2023-05-07T07:13:04;4.87;;;4.00;;
37309;SDS011;23195;47.744;7.358;2023-05-07T07:15:45;5.13;;;4.47;;
37309;SDS011;23195;47.744;7.358;2023-05-07T07:18:35;5.27;;;3.90;;
37309;SDS011;23195;47.744;7.358;2023-05-07T07:21:14;4.30;;;3.90;;
37309;SDS011;23195;47.744;7.358;2023-05-07T07:23:45;5.57;;;4.10;;
37309;SDS011;23195;47.744;7.358;2023-05-07T07:27:00;4.43;;;4.03;;
37309;SDS011;23195;47.744;7.358;2023-05-07T07:29:38;6.27;;;4.30;;
37309;SDS011;23195;47.744;7.358;2023-05-07T07:32:35;6.53;;;4.10;;
37309;SDS011;23195;47.744;7.358;2023-05-07T07:35:31;5.20;;;4.00;;
37309;SDS011;23195;47.744;7.358;2023-05-07T07:38:00;10.20;;;4.33;;
37309;SDS011;23195;47.744;7.358;2023-05-07T07:41:16;4.00;;;3.53;;
37309;SDS011;23195;47.744;7.358;2023-05-07T07:43:56;4.57;;;3.60;;
37309;SDS011;23195;47.744;7.358;2023-05-07T07:46:46;4.23;;;3.83;;
37309;SDS011;23195;47.744;7.358;2023-05-07T07:49:32;5.20;;;3.40;;
37309;SDS011;23195;47.744;7.358;2023-05-07T07:52:25;5.07;;;3.30;;
37309;SDS011;23195;47.744;7.358;2023-05-07T07:55:13;3.63;;;3.33;;
37309;SDS011;23195;47.744;7.358;2023-05-07T07:57:46;5.57;;;4.10;;
37309;SDS011;23195;47.744;7.358;2023-05-07T08:07:11;5.20;;;3.37;;
37309;SDS011;23195;47.744;7.358;2023-05-07T08:09:58;5.07;;;3.37;;
37309;SDS011;23195;47.744;7.358;2023-05-07T08:12:37;3.63;;;3.33;;
37309;SDS011;23195;47.744;7.358;2023-05-07T08:15:17;4.07;;;3.40;;
37309;SDS011;23195;47.744;7.358;2023-05-07T08:17:54;3.30;;;3.00;;
37309;SDS011;23195;47.744;7.358;2023-05-07T08:20:25;3.67;;;3.20;;
37309;SDS011;23195;47.744;7.358;2023-05-07T08:26:25;4.00;;;3.10;;
37309;SDS011;23195;47.744;7.358;2023-05-07T08:29:23;4.60;;;2.90;;
37309;SDS011;23195;47.744;7.358;2023-05-07T08:31:53;4.73;;;3.00;;
37309;SDS011;23195;47.744;7.358;2023-05-07T08:37:34;3.17;;;2.80;;
37309;SDS011;23195;47.744;7.358;2023-05-07T08:43:20;4.90;;;2.80;;
37309;SDS011;23195;47.744;7.358;2023-05-07T08:46:38;5.67;;;3.23;;
37309;SDS011;23195;47.744;7.358;2023-05-07T08:52:33;4.27;;;3.13;;
37309;SDS011;23195;47.744;7.358;2023-05-07T08:55:03;7.90;;;3.13;;
37309;SDS011;23195;47.744;7.358;2023-05-07T08:57:42;3.60;;;3.30;;
37309;SDS011;23195;47.744;7.358;2023-05-07T09:00:21;4.10;;;3.70;;
37309;SDS011;23195;47.744;7.358;2023-05-07T09:06:24;4.87;;;3.50;;
37309;SDS011;23195;47.744;7.358;2023-05-07T09:08:55;3.63;;;3.33;;
37309;SDS011;23195;47.744;7.358;2023-05-07T09:11:33;5.70;;;3.70;;
37309;SDS011;23195;47.744;7.358;2023-05-07T09:14:01;9.23;;;4.50;;
37309;SDS011;23195;47.744;7.358;2023-05-07T09:16:29;7.67;;;4.30;;
37309;SDS011;23195;47.744;7.358;2023-05-07T09:19:11;9.10;;;4.93;;
37309;SDS011;23195;47.744;7.358;2023-05-07T09:21:39;7.53;;;4.53;;
37309;SDS011;23195;47.744;7.358;2023-05-07T09:24:11;7.53;;;4.37;;
37309;SDS011;23195;47.744;7.358;2023-05-07T09:26:44;5.23;;;4.13;;
37309;SDS011;23195;47.744;7.358;2023-05-07T09:29:10;6.23;;;4.60;;
37309;SDS011;23195;47.744;7.358;2023-05-07T09:32:06;7.73;;;4.73;;
37309;SDS011;23195;47.744;7.358;2023-05-07T09:34:45;7.20;;;4.50;;
37309;SDS011;23195;47.744;7.358;2023-05-07T09:37:29;4.30;;;3.90;;
37309;SDS011;23195;47.744;7.358;2023-05-07T09:40:19;7.30;;;4.00;;
37309;SDS011;23195;47.744;7.358;2023-05-07T09:43:01;5.97;;;4.40;;
37309;SDS011;23195;47.744;7.358;2023-05-07T09:46:12;6.70;;;3.50;;
37309;SDS011;23195;47.744;7.358;2023-05-07T09:52:46;7.67;;;4.10;;
37309;SDS011;23195;47.744;7.358;2023-05-07T09:55:48;4.47;;;3.80;;
37309;SDS011;23195;47.744;7.358;2023-05-07T09:58:25;6.20;;;3.67;;
37309;SDS011;23195;47.744;7.358;2023-05-07T10:04:40;5.17;;;3.60;;
37309;SDS011;23195;47.744;7.358;2023-05-07T10:15:05;5.20;;;3.40;;
37309;SDS011;23195;47.744;7.358;2023-05-07T10:38:30;5.00;;;3.40;;
37309;SDS011;23195;47.744;7.358;2023-05-07T10:41:06;6.00;;;3.50;;
37309;SDS011;23195;47.744;7.358;2023-05-07T10:47:25;3.60;;;3.30;;
37309;SDS011;23195;47.744;7.358;2023-05-07T10:50:35;5.13;;;3.50;;
37309;SDS011;23195;47.744;7.358;2023-05-07T11:02:04;4.80;;;2.90;;
37309;SDS011;23195;47.744;7.358;2023-05-07T11:04:47;3.23;;;2.83;;
37309;SDS011;23195;47.744;7.358;2023-05-07T11:08:09;10.10;;;3.50;;
37309;SDS011;23195;47.744;7.358;2023-05-07T11:10:59;5.47;;;3.00;;
37309;SDS011;23195;47.744;7.358;2023-05-07T11:14:18;5.03;;;2.87;;
37309;SDS011;23195;47.744;7.358;2023-05-07T11:17:12;3.97;;;3.07;;
37309;SDS011;23195;47.744;7.358;2023-05-07T11:19:48;5.23;;;2.93;;
37309;SDS011;23195;47.744;7.358;2023-05-07T11:25:01;3.43;;;2.60;;
37309;SDS011;23195;47.744;7.358;2023-05-07T11:27:32;4.20;;;2.80;;
37309;SDS011;23195;47.744;7.358;2023-05-07T11:30:33;3.63;;;2.40;;
37309;SDS011;23195;47.744;7.358;2023-05-07T11:33:32;2.90;;;2.70;;
37309;SDS011;23195;47.744;7.358;2023-05-07T11:36:22;5.17;;;2.50;;
37309;SDS011;23195;47.744;7.358;2023-05-07T11:45:22;4.27;;;2.60;;
37309;SDS011;23195;47.744;7.358;2023-05-07T11:51:32;3.73;;;2.57;;
37309;SDS011;23195;47.744;7.358;2023-05-07T11:54:03;4.00;;;2.60;;
37309;SDS011;23195;47.744;7.358;2023-05-07T11:56:57;2.20;;;2.00;;
37309;SDS011;23195;47.744;7.358;2023-05-07T11:59:44;2.70;;;2.50;;
37309;SDS011;23195;47.744;7.358;2023-05-07T12:02:26;2.30;;;1.93;;
37309;SDS011;23195;47.744;7.358;2023-05-07T12:11:56;3.93;;;2.60;;
37309;SDS011;23195;47.744;7.358;2023-05-07T12:15:32;3.60;;;2.80;;
37309;SDS011;23195;47.744;7.358;2023-05-07T12:18:16;3.90;;;2.63;;
37309;SDS011;23195;47.744;7.358;2023-05-07T12:21:26;3.30;;;2.30;;
37309;SDS011;23195;47.744;7.358;2023-05-07T12:27:52;5.33;;;2.03;;
37309;SDS011;23195;47.744;7.358;2023-05-07T12:30:32;3.00;;;2.23;;
37309;SDS011;23195;47.744;7.358;2023-05-07T12:36:24;2.23;;;1.77;;
37309;SDS011;23195;47.744;7.358;2023-05-07T12:39:07;2.63;;;2.00;;
37309;SDS011;23195;47.744;7.358;2023-05-07T12:44:41;2.97;;;1.77;;
37309;SDS011;23195;47.744;7.358;2023-05-07T12:47:11;3.10;;;2.17;;
37309;SDS011;23195;47.744;7.358;2023-05-07T12:49:37;2.77;;;2.40;;
37309;SDS011;23195;47.744;7.358;2023-05-07T12:56:07;2.13;;;1.80;;
37309;SDS011;23195;47.744;7.358;2023-05-07T12:58:57;2.90;;;2.13;;
37309;SDS011;23195;47.744;7.358;2023-05-07T13:01:52;1.87;;;1.70;;
37309;SDS011;23195;47.744;7.358;2023-05-07T13:14:37;2.93;;;1.90;;
37309;SDS011;23195;47.744;7.358;2023-05-07T13:17:56;4.13;;;2.37;;
37309;SDS011;23195;47.744;7.358;2023-05-07T13:21:14;4.63;;;2.17;;
37309;SDS011;23195;47.744;7.358;2023-05-07T13:23:46;3.03;;;2.20;;
37309;SDS011;23195;47.744;7.358;2023-05-07T13:30:18;1.97;;;1.80;;
37309;SDS011;23195;47.744;7.358;2023-05-07T13:32:55;2.57;;;1.90;;
37309;SDS011;23195;47.744;7.358;2023-05-07T13:35:24;3.10;;;1.90;;
37309;SDS011;23195;47.744;7.358;2023-05-07T13:37:53;3.47;;;1.70;;
37309;SDS011;23195;47.744;7.358;2023-05-07T13:40:22;2.40;;;2.20;;
37309;SDS011;23195;47.744;7.358;2023-05-07T13:43:05;3.40;;;2.13;;
37309;SDS011;23195;47.744;7.358;2023-05-07T13:46:11;3.80;;;1.77;;
37309;SDS011;23195;47.744;7.358;2023-05-07T13:48:39;4.13;;;2.17;;
37309;SDS011;23195;47.744;7.358;2023-05-07T13:51:05;2.97;;;2.07;;
37309;SDS011;23195;47.744;7.358;2023-05-07T13:53:31;2.97;;;2.00;;
37309;SDS011;23195;47.744;7.358;2023-05-07T13:55:56;3.23;;;2.10;;
37309;SDS011;23195;47.744;7.358;2023-05-07T13:58:22;5.43;;;2.10;;
37309;SDS011;23195;47.744;7.358;2023-05-07T14:00:48;3.20;;;2.00;;
37309;SDS011;23195;47.744;7.358;2023-05-07T14:03:17;2.40;;;2.00;;
37309;SDS011;23195;47.744;7.358;2023-05-07T14:05:44;3.17;;;1.70;;
37309;SDS011;23195;47.744;7.358;2023-05-07T14:08:12;2.80;;;1.57;;
37309;SDS011;23195;47.744;7.358;2023-05-07T14:13:40;2.10;;;1.60;;
37309;SDS011;23195;47.744;7.358;2023-05-07T14:16:06;2.93;;;1.87;;
37309;SDS011;23195;47.744;7.358;2023-05-07T14:18:32;1.77;;;1.67;;
37309;SDS011;23195;47.744;7.358;2023-05-07T14:21:05;5.53;;;1.90;;
37309;SDS011;23195;47.744;7.358;2023-05-07T14:23:56;2.40;;;1.93;;
37309;SDS011;23195;47.744;7.358;2023-05-07T14:26:22;4.03;;;2.00;;
37309;SDS011;23195;47.744;7.358;2023-05-07T14:28:48;2.00;;;1.80;;
37309;SDS011;23195;47.744;7.358;2023-05-07T14:31:27;3.23;;;1.53;;
37309;SDS011;23195;47.744;7.358;2023-05-07T14:33:55;2.00;;;1.60;;
37309;SDS011;23195;47.744;7.358;2023-05-07T14:36:23;2.10;;;1.90;;
37309;SDS011;23195;47.744;7.358;2023-05-07T14:38:51;2.20;;;1.93;;
37309;SDS011;23195;47.744;7.358;2023-05-07T14:41:19;1.60;;;1.30;;
37309;SDS011;23195;47.744;7.358;2023-05-07T14:43:48;1.80;;;1.70;;
37309;SDS011;23195;47.744;7.358;2023-05-07T14:46:19;1.70;;;1.53;;
37309;SDS011;23195;47.744;7.358;2023-05-07T14:48:45;2.60;;;1.60;;
37309;SDS011;23195;47.744;7.358;2023-05-07T14:51:11;2.00;;;1.80;;
37309;SDS011;23195;47.744;7.358;2023-05-07T14:53:37;1.63;;;1.53;;
37309;SDS011;23195;47.744;7.358;2023-05-07T14:56:04;1.80;;;1.60;;
37309;SDS011;23195;47.744;7.358;2023-05-07T14:58:30;4.40;;;1.70;;
37309;SDS011;23195;47.744;7.358;2023-05-07T15:00:56;1.90;;;1.57;;
37309;SDS011;23195;47.744;7.358;2023-05-07T15:03:22;1.90;;;1.60;;
37309;SDS011;23195;47.744;7.358;2023-05-07T15:05:48;2.13;;;1.80;;
37309;SDS011;23195;47.744;7.358;2023-05-07T15:08:16;3.40;;;1.73;;
37309;SDS011;23195;47.744;7.358;2023-05-07T15:10:42;2.83;;;1.70;;
37309;SDS011;23195;47.744;7.358;2023-05-07T15:13:09;3.87;;;1.70;;
37309;SDS011;23195;47.744;7.358;2023-05-07T15:15:35;2.10;;;1.90;;
37309;SDS011;23195;47.744;7.358;2023-05-07T15:18:04;2.37;;;1.60;;
37309;SDS011;23195;47.744;7.358;2023-05-07T15:20:30;2.67;;;1.77;;
37309;SDS011;23195;47.744;7.358;2023-05-07T15:22:56;2.83;;;1.80;;
37309;SDS011;23195;47.744;7.358;2023-05-07T15:25:24;4.97;;;1.90;;
37309;SDS011;23195;47.744;7.358;2023-05-07T15:27:50;3.80;;;2.07;;
37309;SDS011;23195;47.744;7.358;2023-05-07T15:30:16;1.80;;;1.70;;
37309;SDS011;23195;47.744;7.358;2023-05-07T15:32:45;3.07;;;1.93;;
37309;SDS011;23195;47.744;7.358;2023-05-07T15:35:14;1.90;;;1.80;;
37309;SDS011;23195;47.744;7.358;2023-05-07T15:37:40;3.63;;;2.20;;
37309;SDS011;23195;47.744;7.358;2023-05-07T15:40:06;5.27;;;1.87;;
37309;SDS011;23195;47.744;7.358;2023-05-07T15:42:35;2.03;;;1.90;;
37309;SDS011;23195;47.744;7.358;2023-05-07T15:45:01;4.67;;;2.00;;
37309;SDS011;23195;47.744;7.358;2023-05-07T15:47:33;2.43;;;2.13;;
37309;SDS011;23195;47.744;7.358;2023-05-07T15:50:01;2.30;;;1.80;;
37309;SDS011;23195;47.744;7.358;2023-05-07T15:52:28;3.17;;;1.50;;
37309;SDS011;23195;47.744;7.358;2023-05-07T15:55:12;2.07;;;1.70;;
37309;SDS011;23195;47.744;7.358;2023-05-07T15:57:54;1.87;;;1.50;;
37309;SDS011;23195;47.744;7.358;2023-05-07T16:00:53;1.83;;;1.40;;
37309;SDS011;23195;47.744;7.358;2023-05-07T16:03:55;1.80;;;1.47;;
37309;SDS011;23195;47.744;7.358;2023-05-07T16:06:24;2.37;;;1.10;;
37309;SDS011;23195;47.744;7.358;2023-05-07T16:09:35;1.70;;;1.33;;
37309;SDS011;23195;47.744;7.358;2023-05-07T16:12:08;3.43;;;1.40;;
37309;SDS011;23195;47.744;7.358;2023-05-07T16:14:47;3.17;;;1.57;;
37309;SDS011;23195;47.744;7.358;2023-05-07T16:17:16;3.37;;;1.90;;
37309;SDS011;23195;47.744;7.358;2023-05-07T16:19:45;2.17;;;1.50;;
37309;SDS011;23195;47.744;7.358;2023-05-07T16:22:14;2.30;;;1.80;;
37309;SDS011;23195;47.744;7.358;2023-05-07T16:24:57;2.40;;;1.60;;
37309;SDS011;23195;47.744;7.358;2023-05-07T16:27:44;5.07;;;2.00;;
37309;SDS011;23195;47.744;7.358;2023-05-07T16:30:13;2.13;;;1.43;;
37309;SDS011;23195;47.744;7.358;2023-05-07T16:32:54;3.60;;;1.87;;
37309;SDS011;23195;47.744;7.358;2023-05-07T16:35:25;5.00;;;1.70;;
37309;SDS011;23195;47.744;7.358;2023-05-07T16:37:58;3.07;;;1.93;;
37309;SDS011;23195;47.744;7.358;2023-05-07T16:40:39;2.03;;;1.37;;
37309;SDS011;23195;47.744;7.358;2023-05-07T16:43:15;3.70;;;1.60;;
37309;SDS011;23195;47.744;7.358;2023-05-07T16:45:44;1.87;;;1.70;;
37309;SDS011;23195;47.744;7.358;2023-05-07T16:48:13;2.90;;;1.60;;
37309;SDS011;23195;47.744;7.358;2023-05-07T16:51:19;3.30;;;1.50;;
37309;SDS011;23195;47.744;7.358;2023-05-07T16:54:02;1.60;;;1.50;;
37309;SDS011;23195;47.744;7.358;2023-05-07T16:56:35;1.83;;;1.50;;
37309;SDS011;23195;47.744;7.358;2023-05-07T16:59:04;3.30;;;1.50;;
37309;SDS011;23195;47.744;7.358;2023-05-07T17:01:47;3.17;;;1.67;;
37309;SDS011;23195;47.744;7.358;2023-05-07T17:04:17;2.47;;;1.50;;
37309;SDS011;23195;47.744;7.358;2023-05-07T17:06:48;1.53;;;1.40;;
37309;SDS011;23195;47.744;7.358;2023-05-07T17:09:29;3.93;;;1.50;;
37309;SDS011;23195;47.744;7.358;2023-05-07T17:12:22;3.80;;;1.60;;
37309;SDS011;23195;47.744;7.358;2023-05-07T17:14:49;3.87;;;1.80;;
37309;SDS011;23195;47.744;7.358;2023-05-07T17:17:32;3.30;;;1.57;;
37309;SDS011;23195;47.744;7.358;2023-05-07T17:20:14;5.70;;;1.60;;
37309;SDS011;23195;47.744;7.358;2023-05-07T17:22:55;2.40;;;1.70;;
37309;SDS011;23195;47.744;7.358;2023-05-07T17:25:21;3.73;;;1.90;;
37309;SDS011;23195;47.744;7.358;2023-05-07T17:28:01;2.53;;;1.77;;
37309;SDS011;23195;47.744;7.358;2023-05-07T17:30:37;2.40;;;1.70;;
37309;SDS011;23195;47.744;7.358;2023-05-07T17:33:16;1.90;;;1.80;;
37309;SDS011;23195;47.744;7.358;2023-05-07T17:35:57;3.53;;;1.77;;
37309;SDS011;23195;47.744;7.358;2023-05-07T17:38:50;2.93;;;2.13;;
37309;SDS011;23195;47.744;7.358;2023-05-07T17:41:38;2.23;;;1.97;;
37309;SDS011;23195;47.744;7.358;2023-05-07T17:44:24;3.67;;;1.93;;
37309;SDS011;23195;47.744;7.358;2023-05-07T17:47:02;2.57;;;1.83;;
37309;SDS011;23195;47.744;7.358;2023-05-07T17:49:48;1.63;;;1.53;;
37309;SDS011;23195;47.744;7.358;2023-05-07T17:53:00;3.07;;;1.83;;
37309;SDS011;23195;47.744;7.358;2023-05-07T17:55:45;2.37;;;1.97;;
37309;SDS011;23195;47.744;7.358;2023-05-07T18:01:31;3.13;;;2.00;;
37309;SDS011;23195;47.744;7.358;2023-05-07T18:04:08;2.90;;;2.07;;
37309;SDS011;23195;47.744;7.358;2023-05-07T18:06:34;2.40;;;1.97;;
37309;SDS011;23195;47.744;7.358;2023-05-07T18:09:12;4.93;;;2.40;;
37309;SDS011;23195;47.744;7.358;2023-05-07T18:12:23;2.60;;;2.40;;
37309;SDS011;23195;47.744;7.358;2023-05-07T18:15:27;2.93;;;2.43;;
37309;SDS011;23195;47.744;7.358;2023-05-07T18:18:00;3.97;;;1.87;;
37309;SDS011;23195;47.744;7.358;2023-05-07T18:20:56;3.53;;;2.40;;
37309;SDS011;23195;47.744;7.358;2023-05-07T18:23:25;5.13;;;2.80;;
37309;SDS011;23195;47.744;7.358;2023-05-07T18:25:51;5.40;;;2.60;;
37309;SDS011;23195;47.744;7.358;2023-05-07T18:28:20;4.00;;;2.80;;
37309;SDS011;23195;47.744;7.358;2023-05-07T18:30:56;4.27;;;2.67;;
37309;SDS011;23195;47.744;7.358;2023-05-07T18:34:05;3.07;;;2.60;;
37309;SDS011;23195;47.744;7.358;2023-05-07T18:36:38;4.57;;;2.50;;
37309;SDS011;23195;47.744;7.358;2023-05-07T18:39:24;3.67;;;2.30;;
37309;SDS011;23195;47.744;7.358;2023-05-07T18:42:29;3.73;;;2.40;;
37309;SDS011;23195;47.744;7.358;2023-05-07T18:44:58;2.70;;;2.50;;
37309;SDS011;23195;47.744;7.358;2023-05-07T18:47:27;2.83;;;2.60;;
37309;SDS011;23195;47.744;7.358;2023-05-07T18:49:55;3.20;;;2.53;;
37309;SDS011;23195;47.744;7.358;2023-05-07T18:52:25;2.93;;;2.50;;
37309;SDS011;23195;47.744;7.358;2023-05-07T18:55:01;3.47;;;3.10;;
37309;SDS011;23195;47.744;7.358;2023-05-07T18:57:38;3.87;;;2.90;;
37309;SDS011;23195;47.744;7.358;2023-05-07T19:00:20;3.47;;;2.43;;
37309;SDS011;23195;47.744;7.358;2023-05-07T19:02:46;7.10;;;2.70;;
37309;SDS011;23195;47.744;7.358;2023-05-07T19:05:12;3.93;;;2.63;;
37309;SDS011;23195;47.744;7.358;2023-05-07T19:07:56;3.77;;;2.60;;
37309;SDS011;23195;47.744;7.358;2023-05-07T19:10:24;3.27;;;2.83;;
37309;SDS011;23195;47.744;7.358;2023-05-07T19:13:07;2.93;;;2.47;;
37309;SDS011;23195;47.744;7.358;2023-05-07T19:15:55;3.17;;;2.17;;
37309;SDS011;23195;47.744;7.358;2023-05-07T19:18:55;4.13;;;2.50;;
37309;SDS011;23195;47.744;7.358;2023-05-07T19:21:29;3.23;;;2.80;;
37309;SDS011;23195;47.744;7.358;2023-05-07T19:23:55;3.17;;;2.63;;
37309;SDS011;23195;47.744;7.358;2023-05-07T19:26:33;5.83;;;2.80;;
37309;SDS011;23195;47.744;7.358;2023-05-07T19:29:09;2.97;;;2.67;;
37309;SDS011;23195;47.744;7.358;2023-05-07T19:31:35;3.33;;;2.53;;
37309;SDS011;23195;47.744;7.358;2023-05-07T19:34:04;3.77;;;2.83;;
37309;SDS011;23195;47.744;7.358;2023-05-07T19:36:42;4.33;;;2.63;;
37309;SDS011;23195;47.744;7.358;2023-05-07T19:39:32;3.20;;;2.67;;
37309;SDS011;23195;47.744;7.358;2023-05-07T19:42:10;4.60;;;2.87;;
37309;SDS011;23195;47.744;7.358;2023-05-07T19:44:38;2.60;;;2.40;;
37309;SDS011;23195;47.744;7.358;2023-05-07T19:47:06;4.23;;;2.60;;
37309;SDS011;23195;47.744;7.358;2023-05-07T19:49:35;5.93;;;2.90;;
37309;SDS011;23195;47.744;7.358;2023-05-07T19:52:00;4.77;;;2.73;;
37309;SDS011;23195;47.744;7.358;2023-05-07T19:54:40;2.80;;;2.60;;
37309;SDS011;23195;47.744;7.358;2023-05-07T19:57:24;2.80;;;2.60;;
37309;SDS011;23195;47.744;7.358;2023-05-07T19:59:55;2.70;;;2.43;;
37309;SDS011;23195;47.744;7.358;2023-05-07T20:02:29;3.30;;;2.30;;
37309;SDS011;23195;47.744;7.358;2023-05-07T20:04:57;3.07;;;2.60;;
37309;SDS011;23195;47.744;7.358;2023-05-07T20:07:55;2.90;;;2.53;;
37309;SDS011;23195;47.744;7.358;2023-05-07T20:14:11;2.50;;;2.20;;
37309;SDS011;23195;47.744;7.358;2023-05-07T20:16:40;2.37;;;2.17;;
37309;SDS011;23195;47.744;7.358;2023-05-07T20:19:23;2.40;;;2.20;;
37309;SDS011;23195;47.744;7.358;2023-05-07T20:21:49;3.50;;;2.40;;
37309;SDS011;23195;47.744;7.358;2023-05-07T20:24:25;2.90;;;2.43;;
37309;SDS011;23195;47.744;7.358;2023-05-07T20:26:54;4.37;;;2.10;;
37309;SDS011;23195;47.744;7.358;2023-05-07T20:29:44;2.57;;;2.37;;
37309;SDS011;23195;47.744;7.358;2023-05-07T20:32:51;2.37;;;2.10;;
37309;SDS011;23195;47.744;7.358;2023-05-07T20:35:28;2.73;;;2.20;;
37309;SDS011;23195;47.744;7.358;2023-05-07T20:38:08;2.90;;;2.10;;
37309;SDS011;23195;47.744;7.358;2023-05-07T20:40:50;2.10;;;2.00;;
37309;SDS011;23195;47.744;7.358;2023-05-07T20:43:24;2.90;;;2.40;;
37309;SDS011;23195;47.744;7.358;2023-05-07T20:45:59;3.80;;;2.37;;
37309;SDS011;23195;47.744;7.358;2023-05-07T20:48:34;2.47;;;2.20;;
37309;SDS011;23195;47.744;7.358;2023-05-07T20:51:02;6.03;;;2.07;;
37309;SDS011;23195;47.744;7.358;2023-05-07T20:53:51;2.60;;;2.40;;
37309;SDS011;23195;47.744;7.358;2023-05-07T21:00:02;2.47;;;2.20;;
37309;SDS011;23195;47.744;7.358;2023-05-07T21:02:58;2.60;;;2.30;;
37309;SDS011;23195;47.744;7.358;2023-05-07T21:05:37;3.13;;;2.33;;
37309;SDS011;23195;47.744;7.358;2023-05-07T21:08:16;2.47;;;2.27;;
37309;SDS011;23195;47.744;7.358;2023-05-07T21:11:07;2.80;;;2.50;;
37309;SDS011;23195;47.744;7.358;2023-05-07T21:17:21;4.57;;;2.60;;
37309;SDS011;23195;47.744;7.358;2023-05-07T21:23:11;3.33;;;2.53;;
37309;SDS011;23195;47.744;7.358;2023-05-07T21:26:07;2.30;;;2.10;;
37309;SDS011;23195;47.744;7.358;2023-05-07T21:32:11;2.97;;;2.50;;
37309;SDS011;23195;47.744;7.358;2023-05-07T21:34:50;2.40;;;2.20;;
37309;SDS011;23195;47.744;7.358;2023-05-07T21:40:29;2.40;;;2.30;;
37309;SDS011;23195;47.744;7.358;2023-05-07T21:43:05;2.70;;;2.50;;
37309;SDS011;23195;47.744;7.358;2023-05-07T21:45:39;2.63;;;2.43;;
37309;SDS011;23195;47.744;7.358;2023-05-07T21:48:22;2.13;;;1.93;;
37309;SDS011;23195;47.744;7.358;2023-05-07T21:51:21;3.27;;;2.60;;
37309;SDS011;23195;47.744;7.358;2023-05-07T21:54:00;6.17;;;2.33;;
37309;SDS011;23195;47.744;7.358;2023-05-07T21:56:38;2.53;;;2.33;;
37309;SDS011;23195;47.744;7.358;2023-05-07T21:59:26;3.67;;;3.00;;
37309;SDS011;23195;47.744;7.358;2023-05-07T22:02:09;3.77;;;2.50;;
37309;SDS011;23195;47.744;7.358;2023-05-07T22:10:09;2.37;;;2.20;;
37309;SDS011;23195;47.744;7.358;2023-05-07T22:12:45;3.97;;;2.43;;
37309;SDS011;23195;47.744;7.358;2023-05-07T22:15:20;2.90;;;2.60;;
37309;SDS011;23195;47.744;7.358;2023-05-07T22:18:17;2.97;;;2.40;;
37309;SDS011;23195;47.744;7.358;2023-05-07T22:20:53;3.50;;;2.60;;
37309;SDS011;23195;47.744;7.358;2023-05-07T22:23:41;2.90;;;2.30;;
37309;SDS011;23195;47.744;7.358;2023-05-07T22:26:18;2.80;;;2.50;;
37309;SDS011;23195;47.744;7.358;2023-05-07T22:29:11;2.50;;;2.30;;
37309;SDS011;23195;47.744;7.358;2023-05-07T22:31:47;3.60;;;2.60;;
37309;SDS011;23195;47.744;7.358;2023-05-07T22:34:17;4.03;;;2.60;;
37309;SDS011;23195;47.744;7.358;2023-05-07T22:39:43;4.47;;;2.33;;
37309;SDS011;23195;47.744;7.358;2023-05-07T22:42:12;3.77;;;2.40;;
37309;SDS011;23195;47.744;7.358;2023-05-07T22:45:08;2.50;;;2.30;;
37309;SDS011;23195;47.744;7.358;2023-05-07T22:47:53;2.90;;;2.70;;
37309;SDS011;23195;47.744;7.358;2023-05-07T22:51:02;3.87;;;2.60;;
37309;SDS011;23195;47.744;7.358;2023-05-07T22:53:46;3.60;;;2.70;;
37309;SDS011;23195;47.744;7.358;2023-05-07T22:56:15;5.13;;;2.73;;
37309;SDS011;23195;47.744;7.358;2023-05-07T22:58:51;3.40;;;2.60;;
37309;SDS011;23195;47.744;7.358;2023-05-07T23:01:49;2.87;;;2.67;;
37309;SDS011;23195;47.744;7.358;2023-05-07T23:07:44;3.07;;;2.77;;
37309;SDS011;23195;47.744;7.358;2023-05-07T23:10:25;2.70;;;2.50;;
37309;SDS011;23195;47.744;7.358;2023-05-07T23:13:02;3.00;;;2.63;;
37309;SDS011;23195;47.744;7.358;2023-05-07T23:15:41;2.70;;;2.50;;
37309;SDS011;23195;47.744;7.358;2023-05-07T23:18:10;2.90;;;2.70;;
37309;SDS011;23195;47.744;7.358;2023-05-07T23:20:59;3.67;;;2.97;;
37309;SDS011;23195;47.744;7.358;2023-05-07T23:23:42;2.90;;;2.60;;
37309;SDS011;23195;47.744;7.358;2023-05-07T23:26:17;3.83;;;2.73;;
37309;SDS011;23195;47.744;7.358;2023-05-07T23:29:13;3.17;;;2.70;;
37309;SDS011;23195;47.744;7.358;2023-05-07T23:31:59;3.57;;;2.70;;
37309;SDS011;23195;47.744;7.358;2023-05-07T23:34:40;2.87;;;2.57;;
37309;SDS011;23195;47.744;7.358;2023-05-07T23:37:16;5.40;;;2.80;;
37309;SDS011;23195;47.744;7.358;2023-05-07T23:40:01;3.90;;;2.90;;
37309;SDS011;23195;47.744;7.358;2023-05-07T23:42:47;3.80;;;3.10;;
37309;SDS011;23195;47.744;7.358;2023-05-07T23:45:53;4.20;;;3.30;;
37309;SDS011;23195;47.744;7.358;2023-05-07T23:51:22;3.33;;;3.07;;
37309;SDS011;23195;47.744;7.358;2023-05-07T23:53:52;3.47;;;3.17;;
37309;SDS011;23195;47.744;7.358;2023-05-07T23:59:30;3.27;;;2.97;;
